sensor_id;sensor_type;location;lat;lon;timestamp;P1;durP1;ratioP1;P2;durP2;ratioP2
74967;SDS011;63523;51.880;12.630;2023-03-01T00:01:08;10.77;;;3.73;;
74967;SDS011;63523;51.880;12.630;2023-03-01T00:03:45;13.80;;;4.18;;
74967;SDS011;63523;51.880;12.630;2023-03-01T00:06:11;11.55;;;4.15;;
74967;SDS011;63523;51.880;12.630;2023-03-01T00:08:37;12.27;;;3.78;;
74967;SDS011;63523;51.880;12.630;2023-03-01T00:11:04;10.40;;;3.20;;
74967;SDS011;63523;51.880;12.630;2023-03-01T00:13:31;9.80;;;3.30;;
74967;SDS011;63523;51.880;12.630;2023-03-01T00:15:58;12.30;;;3.42;;
74967;SDS011;63523;51.880;12.630;2023-03-01T00:18:24;11.50;;;3.17;;
74967;SDS011;63523;51.880;12.630;2023-03-01T00:20:50;8.68;;;2.90;;
74967;SDS011;63523;51.880;12.630;2023-03-01T00:23:17;9.60;;;2.88;;
74967;SDS011;63523;51.880;12.630;2023-03-01T00:25:43;11.00;;;2.60;;
74967;SDS011;63523;51.880;12.630;2023-03-01T00:28:09;12.07;;;3.00;;
74967;SDS011;63523;51.880;12.630;2023-03-01T00:30:34;9.73;;;2.53;;
74967;SDS011;63523;51.880;12.630;2023-03-01T00:33:00;7.28;;;2.50;;
74967;SDS011;63523;51.880;12.630;2023-03-01T00:35:26;10.17;;;2.80;;
74967;SDS011;63523;51.880;12.630;2023-03-01T00:37:51;8.83;;;2.73;;
74967;SDS011;63523;51.880;12.630;2023-03-01T00:40:23;8.00;;;2.53;;
74967;SDS011;63523;51.880;12.630;2023-03-01T00:42:49;12.25;;;3.00;;
74967;SDS011;63523;51.880;12.630;2023-03-01T00:45:15;8.02;;;2.40;;
74967;SDS011;63523;51.880;12.630;2023-03-01T00:47:41;8.60;;;2.40;;
74967;SDS011;63523;51.880;12.630;2023-03-01T00:50:06;9.52;;;3.30;;
74967;SDS011;63523;51.880;12.630;2023-03-01T00:52:32;7.57;;;2.60;;
74967;SDS011;63523;51.880;12.630;2023-03-01T00:54:58;8.02;;;2.45;;
74967;SDS011;63523;51.880;12.630;2023-03-01T00:57:23;9.13;;;2.60;;
74967;SDS011;63523;51.880;12.630;2023-03-01T00:59:49;8.17;;;2.60;;
74967;SDS011;63523;51.880;12.630;2023-03-01T01:02:15;8.32;;;2.70;;
74967;SDS011;63523;51.880;12.630;2023-03-01T01:04:40;9.48;;;2.50;;
74967;SDS011;63523;51.880;12.630;2023-03-01T01:07:06;8.10;;;2.20;;
74967;SDS011;63523;51.880;12.630;2023-03-01T01:09:31;6.95;;;2.30;;
74967;SDS011;63523;51.880;12.630;2023-03-01T01:11:57;7.18;;;2.53;;
74967;SDS011;63523;51.880;12.630;2023-03-01T01:14:22;9.67;;;2.80;;
74967;SDS011;63523;51.880;12.630;2023-03-01T01:16:48;8.30;;;2.63;;
74967;SDS011;63523;51.880;12.630;2023-03-01T01:19:13;7.28;;;2.25;;
74967;SDS011;63523;51.880;12.630;2023-03-01T01:21:39;9.37;;;2.63;;
74967;SDS011;63523;51.880;12.630;2023-03-01T01:24:08;8.07;;;2.53;;
74967;SDS011;63523;51.880;12.630;2023-03-01T01:26:34;9.80;;;2.50;;
74967;SDS011;63523;51.880;12.630;2023-03-01T01:28:59;7.50;;;2.50;;
74967;SDS011;63523;51.880;12.630;2023-03-01T01:31:26;7.85;;;2.45;;
74967;SDS011;63523;51.880;12.630;2023-03-01T01:33:53;8.80;;;2.58;;
74967;SDS011;63523;51.880;12.630;2023-03-01T01:36:20;8.70;;;2.75;;
74967;SDS011;63523;51.880;12.630;2023-03-01T01:38:46;6.82;;;2.40;;
74967;SDS011;63523;51.880;12.630;2023-03-01T01:41:12;8.15;;;2.63;;
74967;SDS011;63523;51.880;12.630;2023-03-01T01:43:42;9.18;;;2.47;;
74967;SDS011;63523;51.880;12.630;2023-03-01T01:48:48;9.05;;;2.63;;
74967;SDS011;63523;51.880;12.630;2023-03-01T01:51:18;7.95;;;2.35;;
74967;SDS011;63523;51.880;12.630;2023-03-01T01:53:50;9.55;;;2.45;;
74967;SDS011;63523;51.880;12.630;2023-03-01T01:56:19;7.15;;;2.22;;
74967;SDS011;63523;51.880;12.630;2023-03-01T01:58:45;8.40;;;2.30;;
74967;SDS011;63523;51.880;12.630;2023-03-01T02:01:12;9.90;;;2.47;;
74967;SDS011;63523;51.880;12.630;2023-03-01T02:03:38;7.67;;;2.50;;
74967;SDS011;63523;51.880;12.630;2023-03-01T02:08:53;11.45;;;3.03;;
74967;SDS011;63523;51.880;12.630;2023-03-01T02:11:18;8.77;;;2.40;;
74967;SDS011;63523;51.880;12.630;2023-03-01T02:13:46;9.38;;;2.58;;
74967;SDS011;63523;51.880;12.630;2023-03-01T02:16:13;9.25;;;2.28;;
74967;SDS011;63523;51.880;12.630;2023-03-01T02:18:40;7.10;;;1.85;;
74967;SDS011;63523;51.880;12.630;2023-03-01T02:27:10;9.88;;;2.67;;
74967;SDS011;63523;51.880;12.630;2023-03-01T02:29:36;7.13;;;2.47;;
74967;SDS011;63523;51.880;12.630;2023-03-01T02:32:02;8.80;;;2.87;;
74967;SDS011;63523;51.880;12.630;2023-03-01T02:34:29;9.77;;;2.85;;
74967;SDS011;63523;51.880;12.630;2023-03-01T02:36:58;11.30;;;3.00;;
74967;SDS011;63523;51.880;12.630;2023-03-01T02:39:46;7.75;;;2.30;;
74967;SDS011;63523;51.880;12.630;2023-03-01T02:42:16;7.93;;;2.90;;
74967;SDS011;63523;51.880;12.630;2023-03-01T02:44:49;7.95;;;2.53;;
74967;SDS011;63523;51.880;12.630;2023-03-01T02:47:15;9.30;;;2.38;;
74967;SDS011;63523;51.880;12.630;2023-03-01T02:49:40;8.17;;;2.77;;
74967;SDS011;63523;51.880;12.630;2023-03-01T02:55:16;9.23;;;2.35;;
74967;SDS011;63523;51.880;12.630;2023-03-01T02:57:43;10.05;;;2.60;;
74967;SDS011;63523;51.880;12.630;2023-03-01T03:00:11;10.48;;;2.42;;
74967;SDS011;63523;51.880;12.630;2023-03-01T03:02:49;8.57;;;2.73;;
74967;SDS011;63523;51.880;12.630;2023-03-01T03:05:17;9.63;;;2.50;;
74967;SDS011;63523;51.880;12.630;2023-03-01T03:07:45;11.20;;;3.22;;
74967;SDS011;63523;51.880;12.630;2023-03-01T03:10:13;8.77;;;2.78;;
74967;SDS011;63523;51.880;12.630;2023-03-01T03:12:41;9.57;;;2.78;;
74967;SDS011;63523;51.880;12.630;2023-03-01T03:15:07;9.00;;;2.93;;
74967;SDS011;63523;51.880;12.630;2023-03-01T03:17:38;10.07;;;2.50;;
74967;SDS011;63523;51.880;12.630;2023-03-01T03:20:06;8.48;;;2.70;;
74967;SDS011;63523;51.880;12.630;2023-03-01T03:22:37;11.13;;;3.30;;
74967;SDS011;63523;51.880;12.630;2023-03-01T03:25:05;9.18;;;2.83;;
74967;SDS011;63523;51.880;12.630;2023-03-01T03:27:35;8.50;;;2.70;;
74967;SDS011;63523;51.880;12.630;2023-03-01T03:30:02;9.05;;;3.00;;
74967;SDS011;63523;51.880;12.630;2023-03-01T03:32:34;8.52;;;3.03;;
74967;SDS011;63523;51.880;12.630;2023-03-01T03:35:06;10.57;;;2.80;;
74967;SDS011;63523;51.880;12.630;2023-03-01T03:37:37;8.35;;;2.65;;
74967;SDS011;63523;51.880;12.630;2023-03-01T03:40:22;8.83;;;2.60;;
74967;SDS011;63523;51.880;12.630;2023-03-01T03:42:49;7.88;;;2.60;;
74967;SDS011;63523;51.880;12.630;2023-03-01T03:45:15;7.23;;;2.40;;
74967;SDS011;63523;51.880;12.630;2023-03-01T03:47:42;8.20;;;2.58;;
74967;SDS011;63523;51.880;12.630;2023-03-01T03:50:08;8.50;;;2.88;;
74967;SDS011;63523;51.880;12.630;2023-03-01T03:52:38;11.27;;;2.67;;
74967;SDS011;63523;51.880;12.630;2023-03-01T03:55:05;9.50;;;2.70;;
74967;SDS011;63523;51.880;12.630;2023-03-01T03:57:35;11.35;;;2.63;;
74967;SDS011;63523;51.880;12.630;2023-03-01T04:00:06;9.98;;;2.95;;
74967;SDS011;63523;51.880;12.630;2023-03-01T04:02:44;10.23;;;2.83;;
74967;SDS011;63523;51.880;12.630;2023-03-01T04:05:11;10.17;;;3.23;;
74967;SDS011;63523;51.880;12.630;2023-03-01T04:07:38;8.95;;;2.95;;
74967;SDS011;63523;51.880;12.630;2023-03-01T04:10:04;11.07;;;3.80;;
74967;SDS011;63523;51.880;12.630;2023-03-01T04:12:32;9.23;;;2.70;;
74967;SDS011;63523;51.880;12.630;2023-03-01T04:14:59;9.65;;;2.75;;
74967;SDS011;63523;51.880;12.630;2023-03-01T04:17:25;7.57;;;2.43;;
74967;SDS011;63523;51.880;12.630;2023-03-01T04:19:51;9.18;;;3.17;;
74967;SDS011;63523;51.880;12.630;2023-03-01T04:22:16;10.17;;;2.97;;
74967;SDS011;63523;51.880;12.630;2023-03-01T04:24:43;9.52;;;3.00;;
74967;SDS011;63523;51.880;12.630;2023-03-01T04:27:10;9.48;;;3.03;;
74967;SDS011;63523;51.880;12.630;2023-03-01T04:29:36;11.15;;;3.20;;
74967;SDS011;63523;51.880;12.630;2023-03-01T04:32:01;10.98;;;3.10;;
74967;SDS011;63523;51.880;12.630;2023-03-01T04:34:28;10.05;;;3.63;;
74967;SDS011;63523;51.880;12.630;2023-03-01T04:36:54;8.63;;;2.87;;
74967;SDS011;63523;51.880;12.630;2023-03-01T04:39:19;10.27;;;3.40;;
74967;SDS011;63523;51.880;12.630;2023-03-01T04:41:45;7.87;;;3.10;;
74967;SDS011;63523;51.880;12.630;2023-03-01T04:44:10;9.48;;;3.15;;
74967;SDS011;63523;51.880;12.630;2023-03-01T04:46:36;8.73;;;3.20;;
74967;SDS011;63523;51.880;12.630;2023-03-01T04:49:02;10.77;;;3.77;;
74967;SDS011;63523;51.880;12.630;2023-03-01T04:51:28;12.73;;;4.20;;
74967;SDS011;63523;51.880;12.630;2023-03-01T04:53:54;11.38;;;3.63;;
74967;SDS011;63523;51.880;12.630;2023-03-01T04:56:19;11.63;;;3.70;;
74967;SDS011;63523;51.880;12.630;2023-03-01T04:58:48;12.25;;;3.78;;
74967;SDS011;63523;51.880;12.630;2023-03-01T05:01:15;10.63;;;3.92;;
74967;SDS011;63523;51.880;12.630;2023-03-01T05:03:44;10.63;;;3.58;;
74967;SDS011;63523;51.880;12.630;2023-03-01T05:06:11;9.38;;;4.05;;
74967;SDS011;63523;51.880;12.630;2023-03-01T05:08:40;10.95;;;4.00;;
74967;SDS011;63523;51.880;12.630;2023-03-01T05:11:07;12.07;;;4.00;;
74967;SDS011;63523;51.880;12.630;2023-03-01T05:13:34;11.10;;;3.83;;
74967;SDS011;63523;51.880;12.630;2023-03-01T05:16:01;9.80;;;4.00;;
74967;SDS011;63523;51.880;12.630;2023-03-01T05:18:27;9.90;;;3.47;;
74967;SDS011;63523;51.880;12.630;2023-03-01T05:21:00;14.43;;;4.47;;
74967;SDS011;63523;51.880;12.630;2023-03-01T05:23:31;9.88;;;3.53;;
74967;SDS011;63523;51.880;12.630;2023-03-01T05:25:58;9.55;;;3.42;;
74967;SDS011;63523;51.880;12.630;2023-03-01T05:28:24;10.27;;;3.25;;
74967;SDS011;63523;51.880;12.630;2023-03-01T05:30:51;8.45;;;3.20;;
74967;SDS011;63523;51.880;12.630;2023-03-01T05:33:17;8.98;;;3.58;;
74967;SDS011;63523;51.880;12.630;2023-03-01T05:35:44;9.90;;;3.50;;
74967;SDS011;63523;51.880;12.630;2023-03-01T05:38:11;10.50;;;3.47;;
74967;SDS011;63523;51.880;12.630;2023-03-01T05:40:44;10.50;;;3.40;;
74967;SDS011;63523;51.880;12.630;2023-03-01T05:43:12;11.63;;;3.88;;
74967;SDS011;63523;51.880;12.630;2023-03-01T05:45:39;10.43;;;3.80;;
74967;SDS011;63523;51.880;12.630;2023-03-01T05:48:06;12.93;;;4.05;;
74967;SDS011;63523;51.880;12.630;2023-03-01T05:50:33;12.05;;;4.00;;
74967;SDS011;63523;51.880;12.630;2023-03-01T05:53:17;12.63;;;4.30;;
74967;SDS011;63523;51.880;12.630;2023-03-01T05:55:46;13.05;;;3.45;;
74967;SDS011;63523;51.880;12.630;2023-03-01T05:58:17;13.43;;;5.25;;
74967;SDS011;63523;51.880;12.630;2023-03-01T06:00:44;11.57;;;3.72;;
74967;SDS011;63523;51.880;12.630;2023-03-01T06:03:12;11.57;;;4.28;;
74967;SDS011;63523;51.880;12.630;2023-03-01T06:05:39;12.73;;;4.87;;
74967;SDS011;63523;51.880;12.630;2023-03-01T06:08:06;13.70;;;5.18;;
74967;SDS011;63523;51.880;12.630;2023-03-01T06:10:32;16.73;;;6.18;;
74967;SDS011;63523;51.880;12.630;2023-03-01T06:12:57;18.55;;;6.40;;
74967;SDS011;63523;51.880;12.630;2023-03-01T06:15:23;16.47;;;5.67;;
74967;SDS011;63523;51.880;12.630;2023-03-01T06:17:50;16.95;;;6.05;;
74967;SDS011;63523;51.880;12.630;2023-03-01T06:20:17;19.08;;;5.45;;
74967;SDS011;63523;51.880;12.630;2023-03-01T06:22:44;14.05;;;5.38;;
74967;SDS011;63523;51.880;12.630;2023-03-01T06:25:11;15.32;;;5.57;;
74967;SDS011;63523;51.880;12.630;2023-03-01T06:27:38;19.23;;;6.50;;
74967;SDS011;63523;51.880;12.630;2023-03-01T06:30:04;19.40;;;6.70;;
74967;SDS011;63523;51.880;12.630;2023-03-01T06:32:32;19.23;;;5.53;;
74967;SDS011;63523;51.880;12.630;2023-03-01T06:34:57;22.02;;;6.60;;
74967;SDS011;63523;51.880;12.630;2023-03-01T06:37:25;22.55;;;7.38;;
74967;SDS011;63523;51.880;12.630;2023-03-01T06:39:57;15.93;;;5.57;;
74967;SDS011;63523;51.880;12.630;2023-03-01T06:42:22;14.07;;;5.07;;
74967;SDS011;63523;51.880;12.630;2023-03-01T06:44:48;13.77;;;4.20;;
74967;SDS011;63523;51.880;12.630;2023-03-01T06:47:16;14.18;;;5.22;;
74967;SDS011;63523;51.880;12.630;2023-03-01T06:49:42;14.25;;;5.30;;
74967;SDS011;63523;51.880;12.630;2023-03-01T06:52:10;13.75;;;3.97;;
74967;SDS011;63523;51.880;12.630;2023-03-01T06:54:36;9.82;;;3.85;;
74967;SDS011;63523;51.880;12.630;2023-03-01T06:57:01;9.17;;;3.30;;
74967;SDS011;63523;51.880;12.630;2023-03-01T06:59:27;11.10;;;3.70;;
74967;SDS011;63523;51.880;12.630;2023-03-01T07:01:53;9.75;;;3.50;;
74967;SDS011;63523;51.880;12.630;2023-03-01T07:04:18;11.07;;;3.60;;
74967;SDS011;63523;51.880;12.630;2023-03-01T07:06:43;12.73;;;4.63;;
74967;SDS011;63523;51.880;12.630;2023-03-01T07:09:09;14.40;;;5.60;;
74967;SDS011;63523;51.880;12.630;2023-03-01T07:11:34;16.08;;;5.82;;
74967;SDS011;63523;51.880;12.630;2023-03-01T07:14:00;16.85;;;5.88;;
74967;SDS011;63523;51.880;12.630;2023-03-01T07:16:25;18.77;;;6.37;;
74967;SDS011;63523;51.880;12.630;2023-03-01T07:18:51;15.33;;;5.80;;
74967;SDS011;63523;51.880;12.630;2023-03-01T07:21:16;14.27;;;6.07;;
74967;SDS011;63523;51.880;12.630;2023-03-01T07:23:42;14.03;;;5.47;;
74967;SDS011;63523;51.880;12.630;2023-03-01T07:26:08;14.57;;;5.67;;
74967;SDS011;63523;51.880;12.630;2023-03-01T07:28:33;12.23;;;4.90;;
74967;SDS011;63523;51.880;12.630;2023-03-01T07:31:03;17.23;;;5.25;;
74967;SDS011;63523;51.880;12.630;2023-03-01T07:33:30;15.85;;;5.55;;
74967;SDS011;63523;51.880;12.630;2023-03-01T07:35:59;17.45;;;5.63;;
74967;SDS011;63523;51.880;12.630;2023-03-01T07:38:26;14.43;;;5.63;;
74967;SDS011;63523;51.880;12.630;2023-03-01T07:40:52;16.13;;;6.25;;
74967;SDS011;63523;51.880;12.630;2023-03-01T07:43:21;16.52;;;6.50;;
74967;SDS011;63523;51.880;12.630;2023-03-01T07:45:46;14.35;;;5.78;;
74967;SDS011;63523;51.880;12.630;2023-03-01T07:48:12;17.27;;;6.13;;
74967;SDS011;63523;51.880;12.630;2023-03-01T07:50:37;37.97;;;8.17;;
74967;SDS011;63523;51.880;12.630;2023-03-01T07:53:03;17.30;;;7.07;;
74967;SDS011;63523;51.880;12.630;2023-03-01T07:55:29;17.25;;;5.97;;
74967;SDS011;63523;51.880;12.630;2023-03-01T07:57:55;16.37;;;6.17;;
74967;SDS011;63523;51.880;12.630;2023-03-01T08:00:20;14.98;;;6.00;;
74967;SDS011;63523;51.880;12.630;2023-03-01T08:02:46;15.83;;;6.10;;
74967;SDS011;63523;51.880;12.630;2023-03-01T08:05:11;13.10;;;5.38;;
74967;SDS011;63523;51.880;12.630;2023-03-01T08:07:37;18.27;;;6.20;;
74967;SDS011;63523;51.880;12.630;2023-03-01T08:10:03;18.07;;;5.87;;
74967;SDS011;63523;51.880;12.630;2023-03-01T08:12:29;16.58;;;6.45;;
74967;SDS011;63523;51.880;12.630;2023-03-01T08:14:55;14.55;;;5.68;;
74967;SDS011;63523;51.880;12.630;2023-03-01T08:17:22;18.58;;;7.57;;
74967;SDS011;63523;51.880;12.630;2023-03-01T08:19:47;20.27;;;7.80;;
74967;SDS011;63523;51.880;12.630;2023-03-01T08:22:13;18.00;;;7.75;;
74967;SDS011;63523;51.880;12.630;2023-03-01T08:24:38;21.02;;;7.30;;
74967;SDS011;63523;51.880;12.630;2023-03-01T08:27:04;18.13;;;7.17;;
74967;SDS011;63523;51.880;12.630;2023-03-01T08:29:33;17.20;;;7.43;;
74967;SDS011;63523;51.880;12.630;2023-03-01T08:31:59;18.95;;;8.13;;
74967;SDS011;63523;51.880;12.630;2023-03-01T08:34:24;20.05;;;6.75;;
74967;SDS011;63523;51.880;12.630;2023-03-01T08:36:50;16.10;;;6.30;;
74967;SDS011;63523;51.880;12.630;2023-03-01T08:39:17;14.60;;;6.57;;
74967;SDS011;63523;51.880;12.630;2023-03-01T08:41:45;20.92;;;7.20;;
74967;SDS011;63523;51.880;12.630;2023-03-01T08:44:12;16.08;;;6.93;;
74967;SDS011;63523;51.880;12.630;2023-03-01T08:46:39;14.07;;;6.70;;
74967;SDS011;63523;51.880;12.630;2023-03-01T08:49:13;16.20;;;6.38;;
74967;SDS011;63523;51.880;12.630;2023-03-01T08:51:40;19.80;;;7.03;;
74967;SDS011;63523;51.880;12.630;2023-03-01T08:54:07;17.25;;;7.53;;
74967;SDS011;63523;51.880;12.630;2023-03-01T08:56:36;17.92;;;6.30;;
74967;SDS011;63523;51.880;12.630;2023-03-01T08:59:02;17.30;;;7.07;;
74967;SDS011;63523;51.880;12.630;2023-03-01T09:01:28;16.92;;;6.53;;
74967;SDS011;63523;51.880;12.630;2023-03-01T09:03:53;14.97;;;6.80;;
74967;SDS011;63523;51.880;12.630;2023-03-01T09:06:19;17.10;;;7.07;;
74967;SDS011;63523;51.880;12.630;2023-03-01T09:08:45;18.57;;;6.20;;
74967;SDS011;63523;51.880;12.630;2023-03-01T09:11:13;12.95;;;5.55;;
74967;SDS011;63523;51.880;12.630;2023-03-01T09:13:41;16.58;;;6.00;;
74967;SDS011;63523;51.880;12.630;2023-03-01T09:16:08;14.80;;;5.47;;
74967;SDS011;63523;51.880;12.630;2023-03-01T09:18:34;11.90;;;4.95;;
74967;SDS011;63523;51.880;12.630;2023-03-01T09:21:20;11.90;;;4.95;;
74967;SDS011;63523;51.880;12.630;2023-03-01T09:23:48;17.73;;;5.60;;
74967;SDS011;63523;51.880;12.630;2023-03-01T09:26:15;13.20;;;5.07;;
74967;SDS011;63523;51.880;12.630;2023-03-01T09:28:44;12.17;;;4.80;;
74967;SDS011;63523;51.880;12.630;2023-03-01T09:31:11;13.13;;;4.43;;
74967;SDS011;63523;51.880;12.630;2023-03-01T09:33:40;8.73;;;4.18;;
74967;SDS011;63523;51.880;12.630;2023-03-01T09:36:08;11.55;;;4.38;;
74967;SDS011;63523;51.880;12.630;2023-03-01T09:38:36;11.05;;;4.07;;
74967;SDS011;63523;51.880;12.630;2023-03-01T09:41:02;11.73;;;4.70;;
74967;SDS011;63523;51.880;12.630;2023-03-01T09:43:44;12.70;;;4.60;;
74967;SDS011;63523;51.880;12.630;2023-03-01T09:46:13;11.05;;;4.57;;
74967;SDS011;63523;51.880;12.630;2023-03-01T09:49:03;13.27;;;4.32;;
74967;SDS011;63523;51.880;12.630;2023-03-01T09:51:33;9.50;;;3.97;;
74967;SDS011;63523;51.880;12.630;2023-03-01T09:54:04;13.50;;;4.63;;
74967;SDS011;63523;51.880;12.630;2023-03-01T09:56:36;10.57;;;4.00;;
74967;SDS011;63523;51.880;12.630;2023-03-01T09:59:23;9.73;;;3.47;;
74967;SDS011;63523;51.880;12.630;2023-03-01T10:02:28;11.20;;;4.57;;
74967;SDS011;63523;51.880;12.630;2023-03-01T10:04:54;10.93;;;3.83;;
74967;SDS011;63523;51.880;12.630;2023-03-01T10:10:38;10.30;;;3.10;;
74967;SDS011;63523;51.880;12.630;2023-03-01T10:13:22;9.13;;;3.13;;
74967;SDS011;63523;51.880;12.630;2023-03-01T10:16:00;9.02;;;2.92;;
74967;SDS011;63523;51.880;12.630;2023-03-01T10:18:38;7.75;;;2.45;;
74967;SDS011;63523;51.880;12.630;2023-03-01T10:21:13;8.68;;;2.63;;
74967;SDS011;63523;51.880;12.630;2023-03-01T10:23:43;12.13;;;2.97;;
74967;SDS011;63523;51.880;12.630;2023-03-01T10:26:17;8.70;;;2.90;;
74967;SDS011;63523;51.880;12.630;2023-03-01T10:29:09;10.57;;;2.60;;
74967;SDS011;63523;51.880;12.630;2023-03-01T10:31:54;9.83;;;3.10;;
74967;SDS011;63523;51.880;12.630;2023-03-01T10:34:30;8.48;;;3.30;;
74967;SDS011;63523;51.880;12.630;2023-03-01T10:36:59;8.95;;;3.42;;
74967;SDS011;63523;51.880;12.630;2023-03-01T10:39:34;10.32;;;2.92;;
74967;SDS011;63523;51.880;12.630;2023-03-01T10:42:00;10.73;;;3.47;;
74967;SDS011;63523;51.880;12.630;2023-03-01T10:44:41;9.30;;;3.60;;
74967;SDS011;63523;51.880;12.630;2023-03-01T10:47:13;9.23;;;3.47;;
74967;SDS011;63523;51.880;12.630;2023-03-01T10:49:39;9.48;;;3.45;;
74967;SDS011;63523;51.880;12.630;2023-03-01T10:52:20;10.63;;;3.30;;
74967;SDS011;63523;51.880;12.630;2023-03-01T10:58:06;8.40;;;3.08;;
74967;SDS011;63523;51.880;12.630;2023-03-01T11:00:55;9.13;;;3.13;;
74967;SDS011;63523;51.880;12.630;2023-03-01T11:03:25;9.93;;;3.03;;
74967;SDS011;63523;51.880;12.630;2023-03-01T11:06:03;9.10;;;2.70;;
74967;SDS011;63523;51.880;12.630;2023-03-01T11:08:33;9.55;;;2.88;;
74967;SDS011;63523;51.880;12.630;2023-03-01T11:13:59;8.50;;;3.08;;
74967;SDS011;63523;51.880;12.630;2023-03-01T11:16:39;6.68;;;2.65;;
74967;SDS011;63523;51.880;12.630;2023-03-01T11:24:16;9.60;;;3.10;;
74967;SDS011;63523;51.880;12.630;2023-03-01T11:26:47;10.13;;;3.40;;
74967;SDS011;63523;51.880;12.630;2023-03-01T11:29:21;8.30;;;3.25;;
74967;SDS011;63523;51.880;12.630;2023-03-01T11:31:56;8.50;;;3.07;;
74967;SDS011;63523;51.880;12.630;2023-03-01T11:34:32;6.97;;;2.50;;
74967;SDS011;63523;51.880;12.630;2023-03-01T11:37:09;8.98;;;3.25;;
74967;SDS011;63523;51.880;12.630;2023-03-01T11:40:05;7.85;;;3.25;;
74967;SDS011;63523;51.880;12.630;2023-03-01T11:45:18;7.07;;;2.73;;
74967;SDS011;63523;51.880;12.630;2023-03-01T11:47:59;8.20;;;3.38;;
74967;SDS011;63523;51.880;12.630;2023-03-01T11:50:47;9.45;;;3.47;;
74967;SDS011;63523;51.880;12.630;2023-03-01T11:58:59;7.23;;;2.40;;
74967;SDS011;63523;51.880;12.630;2023-03-01T12:01:36;7.82;;;2.45;;
74967;SDS011;63523;51.880;12.630;2023-03-01T12:09:59;9.60;;;2.47;;
74967;SDS011;63523;51.880;12.630;2023-03-01T12:13:08;7.87;;;2.20;;
74967;SDS011;63523;51.880;12.630;2023-03-01T12:15:48;7.82;;;2.42;;
74967;SDS011;63523;51.880;12.630;2023-03-01T12:21:12;5.90;;;2.22;;
74967;SDS011;63523;51.880;12.630;2023-03-01T12:51:34;7.07;;;2.33;;
74967;SDS011;63523;51.880;12.630;2023-03-01T12:54:19;9.90;;;2.50;;
74967;SDS011;63523;51.880;12.630;2023-03-01T12:56:50;8.82;;;2.38;;
74967;SDS011;63523;51.880;12.630;2023-03-01T12:59:18;8.05;;;2.60;;
74967;SDS011;63523;51.880;12.630;2023-03-01T13:17:47;9.07;;;2.17;;
74967;SDS011;63523;51.880;12.630;2023-03-01T13:20:21;8.20;;;1.90;;
74967;SDS011;63523;51.880;12.630;2023-03-01T13:23:03;5.40;;;1.92;;
74967;SDS011;63523;51.880;12.630;2023-03-01T13:25:32;5.38;;;1.75;;
74967;SDS011;63523;51.880;12.630;2023-03-01T13:31:07;7.67;;;1.90;;
74967;SDS011;63523;51.880;12.630;2023-03-01T13:39:03;6.00;;;1.80;;
74967;SDS011;63523;51.880;12.630;2023-03-01T13:49:33;6.03;;;1.70;;
74967;SDS011;63523;51.880;12.630;2023-03-01T13:52:13;6.55;;;1.63;;
74967;SDS011;63523;51.880;12.630;2023-03-01T13:54:59;5.35;;;1.73;;
74967;SDS011;63523;51.880;12.630;2023-03-01T13:57:32;14.77;;;2.60;;
74967;SDS011;63523;51.880;12.630;2023-03-01T13:59:59;7.72;;;2.22;;
74967;SDS011;63523;51.880;12.630;2023-03-01T14:02:25;8.10;;;2.00;;
74967;SDS011;63523;51.880;12.630;2023-03-01T14:04:58;6.57;;;2.07;;
74967;SDS011;63523;51.880;12.630;2023-03-01T14:07:25;6.05;;;1.95;;
74967;SDS011;63523;51.880;12.630;2023-03-01T14:09:56;7.87;;;1.70;;
74967;SDS011;63523;51.880;12.630;2023-03-01T14:15:17;6.60;;;2.00;;
74967;SDS011;63523;51.880;12.630;2023-03-01T14:20:44;9.02;;;2.00;;
74967;SDS011;63523;51.880;12.630;2023-03-01T14:23:17;6.80;;;1.97;;
74967;SDS011;63523;51.880;12.630;2023-03-01T14:25:47;6.25;;;1.90;;
74967;SDS011;63523;51.880;12.630;2023-03-01T14:28:24;5.75;;;2.13;;
74967;SDS011;63523;51.880;12.630;2023-03-01T14:30:53;8.15;;;2.00;;
74967;SDS011;63523;51.880;12.630;2023-03-01T14:36:12;6.57;;;1.70;;
74967;SDS011;63523;51.880;12.630;2023-03-01T14:38:41;6.65;;;1.65;;
74967;SDS011;63523;51.880;12.630;2023-03-01T14:43:33;6.67;;;1.57;;
74967;SDS011;63523;51.880;12.630;2023-03-01T14:46:01;5.00;;;1.45;;
74967;SDS011;63523;51.880;12.630;2023-03-01T14:48:27;10.00;;;2.15;;
74967;SDS011;63523;51.880;12.630;2023-03-01T14:50:54;5.33;;;1.50;;
74967;SDS011;63523;51.880;12.630;2023-03-01T14:53:24;7.57;;;1.55;;
74967;SDS011;63523;51.880;12.630;2023-03-01T14:55:53;6.22;;;2.03;;
74967;SDS011;63523;51.880;12.630;2023-03-01T14:58:22;6.80;;;2.07;;
74967;SDS011;63523;51.880;12.630;2023-03-01T15:00:50;5.20;;;1.70;;
74967;SDS011;63523;51.880;12.630;2023-03-01T15:03:30;6.28;;;1.88;;
74967;SDS011;63523;51.880;12.630;2023-03-01T15:06:02;5.95;;;1.63;;
74967;SDS011;63523;51.880;12.630;2023-03-01T15:08:30;5.60;;;1.65;;
74967;SDS011;63523;51.880;12.630;2023-03-01T15:13:51;7.20;;;2.20;;
74967;SDS011;63523;51.880;12.630;2023-03-01T15:18:55;7.43;;;2.00;;
74967;SDS011;63523;51.880;12.630;2023-03-01T15:21:35;8.00;;;2.00;;
74967;SDS011;63523;51.880;12.630;2023-03-01T15:24:05;7.83;;;1.37;;
74967;SDS011;63523;51.880;12.630;2023-03-01T15:26:55;5.40;;;1.55;;
74967;SDS011;63523;51.880;12.630;2023-03-01T15:29:27;6.07;;;1.48;;
74967;SDS011;63523;51.880;12.630;2023-03-01T15:32:01;6.88;;;2.03;;
74967;SDS011;63523;51.880;12.630;2023-03-01T15:34:38;5.63;;;1.70;;
74967;SDS011;63523;51.880;12.630;2023-03-01T15:37:04;7.37;;;1.90;;
74967;SDS011;63523;51.880;12.630;2023-03-01T15:42:35;5.85;;;1.83;;
74967;SDS011;63523;51.880;12.630;2023-03-01T15:47:34;7.68;;;1.80;;
74967;SDS011;63523;51.880;12.630;2023-03-01T15:50:03;6.73;;;2.30;;
74967;SDS011;63523;51.880;12.630;2023-03-01T15:52:40;6.97;;;1.90;;
74967;SDS011;63523;51.880;12.630;2023-03-01T15:58:02;7.60;;;1.80;;
74967;SDS011;63523;51.880;12.630;2023-03-01T16:00:31;7.15;;;2.20;;
74967;SDS011;63523;51.880;12.630;2023-03-01T16:02:57;6.27;;;2.07;;
74967;SDS011;63523;51.880;12.630;2023-03-01T16:05:27;7.38;;;2.13;;
74967;SDS011;63523;51.880;12.630;2023-03-01T16:07:57;6.68;;;2.10;;
74967;SDS011;63523;51.880;12.630;2023-03-01T16:10:23;6.60;;;2.00;;
74967;SDS011;63523;51.880;12.630;2023-03-01T16:12:50;6.97;;;1.90;;
74967;SDS011;63523;51.880;12.630;2023-03-01T16:15:20;6.15;;;1.98;;
74967;SDS011;63523;51.880;12.630;2023-03-01T16:17:46;7.10;;;2.00;;
74967;SDS011;63523;51.880;12.630;2023-03-01T16:20:12;22.73;;;18.13;;
74967;SDS011;63523;51.880;12.630;2023-03-01T16:22:40;6.72;;;2.13;;
74967;SDS011;63523;51.880;12.630;2023-03-01T16:25:12;6.57;;;1.80;;
74967;SDS011;63523;51.880;12.630;2023-03-01T16:27:43;5.73;;;1.90;;
74967;SDS011;63523;51.880;12.630;2023-03-01T16:30:14;6.65;;;2.30;;
74967;SDS011;63523;51.880;12.630;2023-03-01T16:32:42;6.85;;;1.90;;
74967;SDS011;63523;51.880;12.630;2023-03-01T16:35:10;6.82;;;2.28;;
74967;SDS011;63523;51.880;12.630;2023-03-01T16:37:38;6.88;;;2.40;;
74967;SDS011;63523;51.880;12.630;2023-03-01T16:40:04;6.70;;;2.00;;
74967;SDS011;63523;51.880;12.630;2023-03-01T16:42:36;5.88;;;2.00;;
74967;SDS011;63523;51.880;12.630;2023-03-01T16:45:02;6.32;;;2.10;;
74967;SDS011;63523;51.880;12.630;2023-03-01T16:47:28;9.27;;;2.10;;
74967;SDS011;63523;51.880;12.630;2023-03-01T16:49:54;8.07;;;2.70;;
74967;SDS011;63523;51.880;12.630;2023-03-01T16:52:20;7.82;;;2.13;;